Time;durP1;ratioP1;P1;durP2;ratioP2;P2;SDS_P1;SDS_P2;PMS_P1;PMS_P2;Temp;Humidity;BMP_temperature;BMP_pressure;BME280_temperature;BME280_humidity;BME280_pressure;Samples;Min_cycle;Max_cycle;Signal;HPM_P1;HPM_P2
2021/11/24 00:00:53;;;;;;;27.95;14.40;;;5.70;99.90;;;;;;5050742;28;20028;-51
2021/11/24 00:03:18;;;;;;;23.73;14.68;;;5.70;99.90;;;;;;5050622;28;20025;-53
2021/11/24 00:05:44;;;;;;;23.58;14.85;;;5.70;99.90;;;;;;5051414;28;20191;-52
2021/11/24 00:08:09;;;;;;;22.75;15.32;;;5.70;99.90;;;;;;5050742;28;20448;-50
2021/11/24 00:10:36;;;;;;;23.02;14.48;;;5.70;99.90;;;;;;5050607;28;20033;-54
2021/11/24 00:13:04;;;;;;;22.88;14.75;;;5.70;99.90;;;;;;5049533;28;20087;-51
2021/11/24 00:15:29;;;;;;;24.02;15.40;;;5.70;99.90;;;;;;5050863;28;20029;-52
2021/11/24 00:17:55;;;;;;;19.92;14.77;;;5.70;99.90;;;;;;5051746;28;20037;-50
2021/11/24 00:20:21;;;;;;;21.55;15.07;;;5.70;99.90;;;;;;5047199;28;20057;-54
2021/11/24 00:22:46;;;;;;;21.50;13.90;;;5.70;99.90;;;;;;5043800;28;20045;-54
2021/11/24 00:25:12;;;;;;;23.08;15.27;;;5.70;99.90;;;;;;5050210;28;20087;-52
2021/11/24 00:27:38;;;;;;;22.63;14.30;;;5.70;99.90;;;;;;5050071;28;20037;-52
2021/11/24 00:30:05;;;;;;;25.27;14.38;;;5.70;99.90;;;;;;5049376;28;20083;-50
2021/11/24 00:32:31;;;;;;;22.13;14.85;;;5.70;99.90;;;;;;5050684;28;20112;-54
2021/11/24 00:34:57;;;;;;;19.70;14.20;;;5.70;99.90;;;;;;5048315;28;20682;-51
2021/11/24 00:37:23;;;;;;;26.92;16.15;;;5.70;99.90;;;;;;5050190;28;20052;-53
2021/11/24 00:39:48;;;;;;;18.30;13.43;;;5.70;99.90;;;;;;5049733;28;20029;-53
2021/11/24 00:42:14;;;;;;;27.83;15.13;;;5.70;99.90;;;;;;5049936;28;20036;-55
2021/11/24 00:44:39;;;;;;;19.85;14.43;;;5.70;99.90;;;;;;5048807;28;20122;-51
2021/11/24 00:47:05;;;;;;;20.50;13.85;;;5.70;99.90;;;;;;5050653;28;20036;-51
2021/11/24 00:49:31;;;;;;;24.35;14.02;;;5.70;99.90;;;;;;5049721;28;20033;-53
2021/11/24 00:51:57;;;;;;;22.40;14.38;;;5.60;99.90;;;;;;5049941;28;20108;-52
2021/11/24 00:54:22;;;;;;;19.90;12.80;;;5.60;99.90;;;;;;5049149;28;20523;-54
2021/11/24 00:56:48;;;;;;;19.92;13.52;;;5.70;99.90;;;;;;5050205;28;20041;-53
2021/11/24 00:59:14;;;;;;;21.50;12.95;;;5.60;99.90;;;;;;5050020;28;20037;-52
2021/11/24 01:01:40;;;;;;;17.30;12.77;;;5.60;99.90;;;;;;5049442;28;20590;-52
2021/11/24 01:04:05;;;;;;;16.27;11.80;;;5.60;99.90;;;;;;5045314;28;20435;-53
2021/11/24 01:06:31;;;;;;;21.10;13.27;;;5.60;99.90;;;;;;5049981;28;20037;-54
2021/11/24 01:08:56;;;;;;;17.77;12.25;;;5.60;99.90;;;;;;5049649;28;20032;-54
2021/11/24 01:11:22;;;;;;;20.27;13.23;;;5.60;99.90;;;;;;5049273;28;20025;-54
2021/11/24 01:13:48;;;;;;;17.10;11.73;;;5.60;99.90;;;;;;5049463;28;20029;-54
2021/11/24 01:16:14;;;;;;;16.83;11.90;;;5.60;99.90;;;;;;5048267;28;20055;-52
2021/11/24 01:18:40;;;;;;;19.08;12.10;;;5.60;99.90;;;;;;5049109;28;20040;-53
2021/11/24 01:21:06;;;;;;;15.73;11.13;;;5.60;99.90;;;;;;5042396;28;20017;-54
2021/11/24 01:23:32;;;;;;;19.83;12.30;;;5.60;99.90;;;;;;5047237;28;20039;-50
2021/11/24 01:25:57;;;;;;;16.88;12.48;;;5.60;99.90;;;;;;5041701;28;20032;-54
2021/11/24 01:28:23;;;;;;;18.02;12.63;;;5.60;99.90;;;;;;5064493;28;20183;-54
2021/11/24 01:30:49;;;;;;;15.90;12.07;;;5.60;99.90;;;;;;5049415;28;20044;-52
2021/11/24 01:33:15;;;;;;;21.33;12.32;;;5.60;99.90;;;;;;5048788;28;20111;-55
2021/11/24 01:35:41;;;;;;;18.95;11.80;;;5.60;99.90;;;;;;5048746;28;20107;-53
2021/11/24 01:38:06;;;;;;;17.08;11.60;;;5.70;99.90;;;;;;5047456;28;20170;-55
2021/11/24 01:40:33;;;;;;;17.13;11.85;;;5.70;99.90;;;;;;5048309;28;20400;-52
2021/11/24 01:42:58;;;;;;;20.05;12.63;;;5.70;99.90;;;;;;5047395;28;20032;-53
2021/11/24 01:45:24;;;;;;;19.58;12.40;;;5.70;99.90;;;;;;5048851;28;20036;-51
2021/11/24 01:47:50;;;;;;;20.50;13.15;;;5.70;99.90;;;;;;5029127;28;20505;-53
2021/11/24 01:50:17;;;;;;;21.00;13.13;;;5.70;99.90;;;;;;5048889;28;20032;-53
2021/11/24 01:52:42;;;;;;;18.00;12.98;;;5.70;99.90;;;;;;5047824;28;20041;-55
2021/11/24 01:55:10;;;;;;;18.08;12.65;;;5.70;99.90;;;;;;5048348;28;20037;-56
2021/11/24 01:57:38;;;;;;;19.13;13.52;;;5.70;99.90;;;;;;5048515;28;20036;-55
2021/11/24 02:00:05;;;;;;;18.60;13.45;;;5.70;99.90;;;;;;5046388;28;20638;-52
2021/11/24 02:02:31;;;;;;;21.05;13.50;;;5.70;99.90;;;;;;5045895;28;20029;-54
2021/11/24 02:04:57;;;;;;;22.35;13.77;;;5.70;99.90;;;;;;5047933;28;20393;-56
2021/11/24 02:07:23;;;;;;;21.52;14.90;;;5.80;99.90;;;;;;5048903;28;20017;-55
2021/11/24 02:09:48;;;;;;;21.80;14.57;;;5.80;99.90;;;;;;5048299;28;20492;-54
2021/11/24 02:12:15;;;;;;;21.10;14.52;;;5.80;99.90;;;;;;5048429;28;20025;-53
2021/11/24 02:14:42;;;;;;;20.55;13.95;;;5.80;99.90;;;;;;5048005;28;20518;-52
2021/11/24 02:17:09;;;;;;;21.52;14.75;;;5.80;99.90;;;;;;5047090;28;20139;-55
2021/11/24 02:19:36;;;;;;;21.67;15.63;;;5.80;99.90;;;;;;5047807;28;20107;-56
2021/11/24 02:22:02;;;;;;;23.58;15.38;;;5.90;99.90;;;;;;5047495;28;20055;-53
2021/11/24 02:24:31;;;;;;;21.65;15.45;;;5.90;99.90;;;;;;5047991;28;20398;-51
2021/11/24 02:26:57;;;;;;;24.90;15.32;;;5.90;99.90;;;;;;5048255;28;20033;-56
2021/11/24 02:29:23;;;;;;;21.55;13.98;;;5.90;99.90;;;;;;5047504;28;20043;-55
2021/11/24 02:31:53;;;;;;;23.65;14.90;;;5.90;99.90;;;;;;5048338;28;20100;-53
2021/11/24 02:34:19;;;;;;;26.75;15.48;;;5.90;99.90;;;;;;5047877;28;20042;-57
2021/11/24 02:36:45;;;;;;;21.35;14.90;;;6.00;99.90;;;;;;5031553;28;20132;-54
2021/11/24 02:39:12;;;;;;;25.30;15.63;;;6.00;99.90;;;;;;5048027;28;20544;-50
2021/11/24 02:41:38;;;;;;;22.25;14.52;;;6.00;99.90;;;;;;5047511;28;20045;-54
2021/11/24 02:44:17;;;;;;;23.00;15.23;;;6.00;99.90;;;;;;5047300;28;20524;-51
2021/11/24 02:46:43;;;;;;;23.65;14.40;;;6.00;99.90;;;;;;5048410;28;20021;-53
2021/11/24 02:49:08;;;;;;;21.65;14.55;;;6.00;99.90;;;;;;5046250;28;20040;-57
2021/11/24 02:51:34;;;;;;;21.92;14.02;;;6.00;99.90;;;;;;5047588;28;20575;-52
2021/11/24 02:54:00;;;;;;;26.55;15.05;;;6.00;99.90;;;;;;5047186;28;20039;-55
2021/11/24 02:56:26;;;;;;;20.75;13.10;;;6.00;99.90;;;;;;5048076;28;20064;-52
2021/11/24 02:58:51;;;;;;;21.75;15.13;;;6.00;99.90;;;;;;5047477;28;20547;-52
2021/11/24 03:01:17;;;;;;;23.35;13.75;;;6.10;99.90;;;;;;5047557;28;20041;-51
2021/11/24 03:03:42;;;;;;;22.65;15.38;;;6.10;99.90;;;;;;5046140;28;20033;-56
2021/11/24 03:06:08;;;;;;;20.45;13.98;;;6.10;99.90;;;;;;5048029;28;20032;-54
2021/11/24 03:08:33;;;;;;;22.33;15.15;;;6.10;99.90;;;;;;5046539;28;20083;-54
2021/11/24 03:10:59;;;;;;;28.55;16.42;;;6.10;99.90;;;;;;5046554;28;20021;-52
2021/11/24 03:13:25;;;;;;;25.52;15.50;;;6.20;99.90;;;;;;5046006;28;20094;-54
2021/11/24 03:15:50;;;;;;;22.10;14.73;;;6.20;99.90;;;;;;5046699;28;20108;-53
2021/11/24 03:18:16;;;;;;;24.75;15.68;;;6.20;99.90;;;;;;5047545;28;20104;-50
2021/11/24 03:20:42;;;;;;;26.25;16.55;;;6.20;99.90;;;;;;5040569;28;20042;-52
2021/11/24 03:23:07;;;;;;;22.63;14.27;;;6.20;99.90;;;;;;5031024;28;20044;-55
2021/11/24 03:25:34;;;;;;;29.75;16.42;;;6.20;99.90;;;;;;5046694;28;20033;-53
2021/11/24 03:27:59;;;;;;;29.95;16.60;;;6.20;99.90;;;;;;5047407;28;20040;-54
2021/11/24 03:30:28;;;;;;;28.35;16.73;;;6.20;99.90;;;;;;5047688;28;20063;-53
2021/11/24 03:32:55;;;;;;;28.15;16.42;;;6.20;99.90;;;;;;5046950;28;20036;-53
2021/11/24 03:35:23;;;;;;;29.92;15.15;;;6.20;99.90;;;;;;5046798;28;20040;-53
2021/11/24 03:37:51;;;;;;;19.38;13.52;;;6.30;99.90;;;;;;5045426;28;20036;-51
2021/11/24 03:40:19;;;;;;;22.27;13.82;;;6.30;99.90;;;;;;5047293;28;20467;-52
2021/11/24 03:42:46;;;;;;;19.98;12.60;;;6.30;99.90;;;;;;5047508;28;20477;-54
2021/11/24 03:45:14;;;;;;;19.02;12.60;;;6.30;99.90;;;;;;5047120;28;20037;-52
2021/11/24 03:47:40;;;;;;;22.13;13.23;;;6.30;99.90;;;;;;5047532;28;20025;-50
2021/11/24 03:50:07;;;;;;;22.80;12.98;;;6.30;99.90;;;;;;5051351;28;20555;-53
2021/11/24 03:52:33;;;;;;;17.23;12.13;;;6.30;99.90;;;;;;5050752;28;20509;-53
2021/11/24 03:54:58;;;;;;;17.30;11.48;;;6.30;99.90;;;;;;5050990;28;20043;-55
2021/11/24 03:57:24;;;;;;;19.42;11.27;;;6.30;99.90;;;;;;5050948;28;20562;-55
2021/11/24 03:59:50;;;;;;;16.05;10.02;;;6.40;99.90;;;;;;5050157;28;20035;-51
2021/11/24 04:02:15;;;;;;;16.58;11.32;;;6.30;99.90;;;;;;5050389;28;20054;-51
2021/11/24 04:04:41;;;;;;;15.75;9.80;;;6.30;99.90;;;;;;5050698;28;20516;-52
2021/11/24 04:07:06;;;;;;;17.50;10.10;;;6.30;99.90;;;;;;5050998;28;20037;-55
2021/11/24 04:09:32;;;;;;;13.65;9.88;;;6.30;99.90;;;;;;5049578;28;20039;-54
2021/11/24 04:11:58;;;;;;;17.45;9.95;;;6.30;99.90;;;;;;5050808;28;20036;-51
2021/11/24 04:14:23;;;;;;;15.02;10.85;;;6.40;99.90;;;;;;5050541;28;20031;-52
2021/11/24 04:16:49;;;;;;;16.80;10.77;;;6.40;99.90;;;;;;5050436;28;20544;-54
2021/11/24 04:19:14;;;;;;;15.50;10.60;;;6.40;99.90;;;;;;5050482;28;20598;-51
2021/11/24 04:21:40;;;;;;;17.02;9.23;;;6.40;99.90;;;;;;5049627;28;20029;-52
2021/11/24 04:24:07;;;;;;;15.00;9.95;;;6.40;99.90;;;;;;5049398;28;20028;-51
2021/11/24 04:26:32;;;;;;;16.58;10.57;;;6.40;99.90;;;;;;5050425;28;20036;-52
2021/11/24 04:28:58;;;;;;;18.85;11.10;;;6.40;99.90;;;;;;5050215;28;20036;-53
2021/11/24 04:31:23;;;;;;;14.23;9.75;;;6.40;99.90;;;;;;5050154;28;20037;-52
2021/11/24 04:33:49;;;;;;;12.95;9.70;;;6.40;99.90;;;;;;5050354;28;20064;-52
2021/11/24 04:36:14;;;;;;;17.92;10.95;;;6.40;99.90;;;;;;5049416;28;20159;-50
2021/11/24 04:38:40;;;;;;;17.15;12.00;;;6.40;99.90;;;;;;5049385;28;20029;-50
2021/11/24 04:41:06;;;;;;;17.05;10.70;;;6.50;99.90;;;;;;5050450;28;20029;-52
2021/11/24 04:43:36;;;;;;;20.90;12.80;;;6.40;99.90;;;;;;5050045;28;20489;-55
2021/11/24 04:46:02;;;;;;;16.67;10.75;;;6.40;99.90;;;;;;5049461;28;20374;-51
2021/11/24 04:48:28;;;;;;;16.25;9.85;;;6.50;99.90;;;;;;5049704;28;20082;-52
2021/11/24 04:50:54;;;;;;;16.98;10.15;;;6.50;99.90;;;;;;5050323;28;20056;-54
2021/11/24 04:53:20;;;;;;;18.13;10.45;;;6.50;99.90;;;;;;5049055;28;20029;-52
2021/11/24 04:55:46;;;;;;;16.25;9.98;;;6.50;99.90;;;;;;5050277;28;20060;-52
2021/11/24 04:58:11;;;;;;;17.05;10.32;;;6.50;99.90;;;;;;5047666;28;20071;-53
2021/11/24 05:00:38;;;;;;;16.33;10.00;;;6.50;99.90;;;;;;5048521;28;20436;-49
2021/11/24 05:03:04;;;;;;;19.92;11.10;;;6.50;99.90;;;;;;5041710;28;20469;-53
2021/11/24 05:05:30;;;;;;;22.40;12.35;;;6.50;99.90;;;;;;5049658;28;20108;-51
2021/11/24 05:07:57;;;;;;;16.35;11.05;;;6.60;99.90;;;;;;5048977;28;20025;-53
2021/11/24 05:10:23;;;;;;;21.45;11.77;;;6.50;99.90;;;;;;5048778;28;20025;-50
2021/11/24 05:12:50;;;;;;;17.48;11.20;;;6.50;99.90;;;;;;5050046;28;20481;-52
2021/11/24 05:15:21;;;;;;;19.05;12.23;;;6.50;99.90;;;;;;5049708;28;20443;-52
2021/11/24 05:17:51;;;;;;;16.80;11.88;;;6.60;99.90;;;;;;5049335;28;20135;-54
2021/11/24 05:20:20;;;;;;;17.15;10.30;;;6.60;99.90;;;;;;5048859;28;20078;-52
2021/11/24 05:22:48;;;;;;;20.60;12.38;;;6.60;99.90;;;;;;5048752;28;20166;-51
2021/11/24 05:25:14;;;;;;;16.67;10.10;;;6.60;99.90;;;;;;5049378;28;20516;-53
2021/11/24 05:27:40;;;;;;;21.33;12.27;;;6.60;99.90;;;;;;5049177;28;20063;-51
2021/11/24 05:30:07;;;;;;;17.30;10.68;;;6.60;99.90;;;;;;5049369;28;20052;-53
2021/11/24 05:32:33;;;;;;;15.32;9.90;;;6.60;99.90;;;;;;5049205;28;20029;-56
2021/11/24 05:34:58;;;;;;;19.10;12.27;;;6.60;99.90;;;;;;5048664;28;20090;-56
2021/11/24 05:37:24;;;;;;;15.85;10.82;;;6.60;99.90;;;;;;5048847;28;20032;-52
2021/11/24 05:39:50;;;;;;;15.13;10.23;;;6.60;99.90;;;;;;5048313;28;20097;-53
2021/11/24 05:42:17;;;;;;;15.55;10.80;;;6.60;99.90;;;;;;5049386;28;20032;-52
2021/11/24 05:44:47;;;;;;;15.75;10.63;;;6.60;99.90;;;;;;5048757;28;20498;-54
2021/11/24 05:47:49;;;;;;;13.35;9.20;;;6.60;99.90;;;;;;5046621;28;20429;-51
2021/11/24 05:49:58;;;;;;;15.52;10.55;;;6.60;99.90;;;;;;5045037;28;20150;-58
2021/11/24 05:52:24;;;;;;;14.05;10.05;;;6.60;99.90;;;;;;5048951;28;20167;-54
2021/11/24 05:54:49;;;;;;;14.43;8.30;;;6.60;99.90;;;;;;5049122;28;20489;-56
2021/11/24 05:57:16;;;;;;;13.85;8.90;;;6.70;99.90;;;;;;5048845;28;20048;-51
2021/11/24 05:59:42;;;;;;;13.90;9.32;;;6.60;99.90;;;;;;5048176;28;20036;-55
2021/11/24 06:02:08;;;;;;;13.80;9.60;;;6.60;99.90;;;;;;5048492;28;20464;-54
2021/11/24 06:04:34;;;;;;;15.60;10.85;;;6.60;99.90;;;;;;5047394;28;20112;-53
2021/11/24 06:07:00;;;;;;;15.82;9.68;;;6.60;99.90;;;;;;5048793;28;20131;-54
2021/11/24 06:09:26;;;;;;;17.60;9.77;;;6.60;99.90;;;;;;5047661;28;20467;-53
2021/11/24 06:11:51;;;;;;;15.25;10.27;;;6.60;99.90;;;;;;5047994;28;20044;-53
2021/11/24 06:14:17;;;;;;;17.30;11.77;;;6.60;99.90;;;;;;5047631;28;20041;-55
2021/11/24 06:16:43;;;;;;;19.17;11.43;;;6.60;99.90;;;;;;5048345;28;20043;-51
2021/11/24 06:19:08;;;;;;;17.30;10.23;;;6.60;99.90;;;;;;5048792;28;20029;-55
2021/11/24 06:21:34;;;;;;;14.98;9.32;;;6.60;99.90;;;;;;5041367;28;20037;-51
2021/11/24 06:23:59;;;;;;;15.77;9.73;;;6.60;99.90;;;;;;5048742;28;20037;-50
2021/11/24 06:26:25;;;;;;;16.40;10.45;;;6.60;99.90;;;;;;5048034;28;20025;-52
2021/11/24 06:28:51;;;;;;;20.38;10.95;;;6.60;99.90;;;;;;5048337;28;20032;-56
2021/11/24 06:31:16;;;;;;;17.50;11.52;;;6.60;99.90;;;;;;5047304;28;20040;-52
2021/11/24 06:33:42;;;;;;;17.08;10.70;;;6.60;99.90;;;;;;5048183;28;20029;-53
2021/11/24 06:36:08;;;;;;;17.05;11.23;;;6.60;99.90;;;;;;5047872;28;20029;-54
2021/11/24 06:38:34;;;;;;;17.60;10.77;;;6.60;99.90;;;;;;5069649;23;20040;-57
2021/11/24 06:40:59;;;;;;;17.38;11.55;;;6.60;99.90;;;;;;5047733;28;20025;-54
2021/11/24 06:43:25;;;;;;;19.23;12.07;;;6.60;99.90;;;;;;5047618;28;20787;-52
2021/11/24 06:45:50;;;;;;;18.25;12.43;;;6.60;99.90;;;;;;5047529;28;20064;-55
2021/11/24 06:48:16;;;;;;;17.45;12.10;;;6.60;99.90;;;;;;5043482;28;20493;-53
2021/11/24 06:50:42;;;;;;;16.73;11.70;;;6.60;99.90;;;;;;5046387;28;20032;-53
2021/11/24 06:53:08;;;;;;;16.27;11.23;;;6.60;99.90;;;;;;5043178;28;20036;-53
2021/11/24 06:55:34;;;;;;;19.52;11.68;;;6.60;99.90;;;;;;5046526;28;20021;-54
2021/11/24 06:57:59;;;;;;;18.58;11.35;;;6.60;99.90;;;;;;5043684;28;20033;-53
2021/11/24 07:00:26;;;;;;;17.45;11.43;;;6.60;99.90;;;;;;5039060;28;20047;-55
2021/11/24 07:02:52;;;;;;;18.20;11.32;;;6.60;99.90;;;;;;5047058;28;20025;-53
2021/11/24 07:05:18;;;;;;;15.93;10.02;;;6.60;99.90;;;;;;5047239;28;20063;-54
2021/11/24 07:07:44;;;;;;;16.15;10.85;;;6.60;99.90;;;;;;5047638;28;20520;-56
2021/11/24 07:10:10;;;;;;;15.20;10.07;;;6.60;99.90;;;;;;5047733;28;20025;-56
2021/11/24 07:12:35;;;;;;;15.73;10.90;;;6.60;99.90;;;;;;5047719;28;20040;-54
2021/11/24 07:15:01;;;;;;;15.80;10.10;;;6.60;99.90;;;;;;5046899;28;20018;-55
2021/11/24 07:17:27;;;;;;;16.90;10.93;;;6.60;99.90;;;;;;5047403;28;20048;-55
2021/11/24 07:19:53;;;;;;;16.92;10.48;;;6.60;99.90;;;;;;5047197;28;20024;-54
2021/11/24 07:22:18;;;;;;;15.73;10.50;;;6.60;99.90;;;;;;5027497;28;20444;-53
2021/11/24 07:24:44;;;;;;;14.10;9.90;;;6.60;99.90;;;;;;5046806;28;20021;-55
2021/11/24 07:27:10;;;;;;;17.52;11.10;;;6.50;99.90;;;;;;5031137;28;20121;-54
2021/11/24 07:29:36;;;;;;;16.48;10.90;;;6.50;99.90;;;;;;5031150;28;20597;-54
2021/11/24 07:32:02;;;;;;;15.95;12.15;;;6.60;99.90;;;;;;5031341;28;20048;-53
2021/11/24 07:34:27;;;;;;;14.50;9.88;;;6.50;99.90;;;;;;5035569;28;20441;-57
2021/11/24 07:36:53;;;;;;;14.63;10.60;;;6.50;99.90;;;;;;5050758;28;20067;-53
2021/11/24 07:39:19;;;;;;;18.08;11.43;;;6.50;99.90;;;;;;5050370;28;20044;-55
2021/11/24 07:41:45;;;;;;;16.88;10.30;;;6.60;99.90;;;;;;5051159;28;20021;-54
2021/11/24 07:44:11;;;;;;;15.55;10.45;;;6.50;99.90;;;;;;5049163;28;20036;-55
2021/11/24 07:46:36;;;;;;;17.02;11.25;;;6.60;99.90;;;;;;5050719;28;20061;-56
2021/11/24 07:49:02;;;;;;;16.13;10.98;;;6.50;99.90;;;;;;5050752;28;20104;-53
2021/11/24 07:51:28;;;;;;;15.43;10.32;;;6.50;99.90;;;;;;5050914;28;20025;-54
2021/11/24 07:53:54;;;;;;;15.45;10.05;;;6.60;99.90;;;;;;5050548;28;20017;-55
2021/11/24 07:56:20;;;;;;;16.38;11.23;;;6.60;99.90;;;;;;5050811;28;20021;-53
2021/11/24 07:58:45;;;;;;;17.17;12.95;;;6.60;99.90;;;;;;5048576;28;20090;-54
2021/11/24 08:01:13;;;;;;;17.27;11.40;;;6.60;99.90;;;;;;5046845;28;20021;-55
2021/11/24 08:03:39;;;;;;;15.43;10.85;;;6.60;99.90;;;;;;5030279;28;20124;-56
2021/11/24 08:06:05;;;;;;;17.08;12.15;;;6.60;99.90;;;;;;5038058;28;20029;-56
2021/11/24 08:08:30;;;;;;;17.30;11.80;;;6.60;99.90;;;;;;5050634;28;20032;-57
2021/11/24 08:10:56;;;;;;;16.15;11.40;;;6.60;99.90;;;;;;5051125;28;20031;-55
2021/11/24 08:13:22;;;;;;;15.65;10.45;;;6.60;99.90;;;;;;5049187;28;20028;-55
2021/11/24 08:15:48;;;;;;;16.08;11.05;;;6.60;99.90;;;;;;5050702;28;20094;-55
2021/11/24 08:18:14;;;;;;;19.77;13.02;;;6.60;99.90;;;;;;5050223;28;20064;-53
2021/11/24 08:20:40;;;;;;;15.23;11.20;;;6.60;99.90;;;;;;5044419;28;20041;-54
2021/11/24 08:23:06;;;;;;;15.65;11.75;;;6.60;99.90;;;;;;5050641;28;20033;-55
2021/11/24 08:25:32;;;;;;;17.25;12.18;;;6.60;99.90;;;;;;5051019;28;20471;-54
2021/11/24 08:27:58;;;;;;;17.00;10.32;;;6.60;99.90;;;;;;5050111;28;20032;-56
2021/11/24 08:30:23;;;;;;;15.60;11.40;;;6.60;99.90;;;;;;5050589;28;20432;-55
2021/11/24 08:32:50;;;;;;;14.77;10.80;;;6.70;99.90;;;;;;5050967;28;20021;-55
2021/11/24 08:35:17;;;;;;;17.33;10.82;;;6.70;99.90;;;;;;5049354;28;20039;-57
2021/11/24 08:37:42;;;;;;;15.48;10.57;;;6.70;99.90;;;;;;5050242;28;20036;-54
2021/11/24 08:40:09;;;;;;;14.18;9.65;;;6.70;99.90;;;;;;5050487;28;20690;-56
2021/11/24 08:42:35;;;;;;;14.75;10.35;;;6.70;99.90;;;;;;5050185;28;20512;-54
2021/11/24 08:45:00;;;;;;;12.82;9.65;;;6.80;99.90;;;;;;5050309;28;20021;-54
2021/11/24 08:47:26;;;;;;;11.93;9.15;;;6.70;99.90;;;;;;5050253;28;20025;-54
2021/11/24 08:49:51;;;;;;;13.35;9.45;;;6.70;99.90;;;;;;5050083;28;20078;-55
2021/11/24 08:52:17;;;;;;;13.63;9.77;;;6.70;99.90;;;;;;5050481;28;20060;-55
2021/11/24 08:54:43;;;;;;;12.23;9.20;;;6.80;99.90;;;;;;5050143;28;20082;-52
2021/11/24 08:57:09;;;;;;;15.25;9.02;;;6.80;99.90;;;;;;5050135;28;20025;-54
2021/11/24 08:59:35;;;;;;;13.88;9.50;;;6.80;99.90;;;;;;5050158;28;20471;-56
2021/11/24 09:02:00;;;;;;;11.55;8.43;;;6.80;99.90;;;;;;5050856;28;20025;-53
2021/11/24 09:04:26;;;;;;;13.15;9.55;;;6.80;99.90;;;;;;5045558;28;20053;-55
2021/11/24 09:06:52;;;;;;;12.93;9.25;;;6.90;99.90;;;;;;5028778;28;20029;-51
2021/11/24 09:09:17;;;;;;;16.73;9.57;;;6.90;99.90;;;;;;5028618;28;20021;-52
2021/11/24 09:11:43;;;;;;;12.75;9.52;;;6.90;99.90;;;;;;5040109;28;20025;-54
2021/11/24 09:14:09;;;;;;;12.13;9.60;;;6.90;99.90;;;;;;5049491;28;20025;-54
2021/11/24 09:16:34;;;;;;;14.50;9.80;;;7.00;99.90;;;;;;5050032;28;20029;-56
2021/11/24 09:19:00;;;;;;;13.68;10.05;;;7.00;99.90;;;;;;5048142;28;20061;-55
2021/11/24 09:21:26;;;;;;;14.65;10.75;;;7.00;99.90;;;;;;5049026;28;20028;-55
2021/11/24 09:23:53;;;;;;;14.32;10.45;;;7.00;99.90;;;;;;5048237;28;20029;-56
2021/11/24 09:26:42;;;;;;;14.57;9.98;;;7.10;99.90;;;;;;5030933;28;20029;-59
2021/11/24 09:29:06;;;;;;;13.38;9.45;;;7.00;99.90;;;;;;5048643;28;20044;-56
2021/11/24 09:31:32;;;;;;;18.77;12.48;;;7.00;99.90;;;;;;5048510;28;20401;-54
2021/11/24 09:33:59;;;;;;;15.75;11.48;;;7.00;99.90;;;;;;5047964;28;20033;-56
2021/11/24 09:36:24;;;;;;;14.38;10.43;;;7.10;99.90;;;;;;5050121;28;20021;-56
2021/11/24 09:38:50;;;;;;;14.40;9.88;;;7.10;99.90;;;;;;5049022;28;20029;-53
2021/11/24 09:41:21;;;;;;;13.85;9.45;;;7.20;99.90;;;;;;5049500;28;20021;-57
2021/11/24 09:43:53;;;;;;;14.88;9.10;;;7.10;99.90;;;;;;5049111;28;20029;-55
2021/11/24 09:46:19;;;;;;;14.60;9.40;;;7.10;99.90;;;;;;5049012;28;20017;-57
2021/11/24 09:48:45;;;;;;;14.23;9.77;;;7.10;99.90;;;;;;5049033;28;20096;-55
2021/11/24 09:51:12;;;;;;;15.20;10.63;;;7.10;99.90;;;;;;5049069;28;20021;-54
2021/11/24 09:53:40;;;;;;;11.30;9.38;;;7.10;99.90;;;;;;5049705;28;20515;-56
2021/11/24 09:56:07;;;;;;;11.90;9.75;;;7.10;99.90;;;;;;5047905;28;20116;-58
2021/11/24 09:58:32;;;;;;;14.25;9.43;;;7.20;99.90;;;;;;5049268;28;20024;-55
2021/11/24 10:00:58;;;;;;;12.07;8.98;;;7.20;99.90;;;;;;5049593;28;20098;-55
2021/11/24 10:03:26;;;;;;;12.77;8.32;;;7.20;99.90;;;;;;5049476;28;20083;-58
2021/11/24 10:05:52;;;;;;;11.75;9.52;;;7.20;99.90;;;;;;5049286;28;20101;-55
2021/11/24 10:08:18;;;;;;;12.98;9.07;;;7.30;99.90;;;;;;5048634;28;20048;-58
2021/11/24 10:10:44;;;;;;;14.27;9.73;;;7.40;99.90;;;;;;5048911;28;20032;-58
2021/11/24 10:13:10;;;;;;;13.02;9.90;;;7.40;99.90;;;;;;5048448;28;20101;-56
2021/11/24 10:15:44;;;;;;;12.23;8.95;;;7.40;99.90;;;;;;5049140;28;20354;-56
2021/11/24 10:18:27;;;;;;;11.68;8.68;;;7.40;99.90;;;;;;5049012;28;20761;-56
2021/11/24 10:21:17;;;;;;;13.20;8.73;;;7.50;99.90;;;;;;5044945;28;20033;-56
2021/11/24 10:23:45;;;;;;;14.40;8.48;;;7.50;99.90;;;;;;5048599;28;20362;-57
2021/11/24 10:26:13;;;;;;;12.95;9.55;;;7.60;99.90;;;;;;5048206;28;20021;-56
2021/11/24 10:28:39;;;;;;;11.18;7.88;;;7.60;99.90;;;;;;5048409;28;20025;-55
2021/11/24 10:31:34;;;;;;;10.23;7.82;;;7.60;99.90;;;;;;5047524;28;20028;-55
2021/11/24 10:34:02;;;;;;;12.52;9.23;;;7.70;99.90;;;;;;5047979;28;20493;-57
2021/11/24 10:36:28;;;;;;;10.30;7.85;;;7.70;99.90;;;;;;5048542;28;20496;-58
2021/11/24 10:38:55;;;;;;;11.57;9.05;;;7.70;99.90;;;;;;5048549;28;20709;-57
2021/11/24 10:41:28;;;;;;;11.90;7.82;;;7.70;99.90;;;;;;5048904;28;20104;-54
2021/11/24 10:43:53;;;;;;;12.75;8.57;;;7.80;99.90;;;;;;5048590;28;20623;-56
2021/11/24 10:46:24;;;;;;;12.15;7.90;;;7.80;99.90;;;;;;5047258;28;20021;-56
2021/11/24 10:48:59;;;;;;;11.23;7.80;;;7.80;99.90;;;;;;5034624;28;20557;-55
2021/11/24 10:51:41;;;;;;;11.65;8.70;;;7.80;99.90;;;;;;5040591;28;20029;-57
2021/11/24 10:54:09;;;;;;;14.45;9.07;;;7.80;99.90;;;;;;5048847;28;20033;-57
2021/11/24 10:56:54;;;;;;;11.30;8.52;;;7.90;99.90;;;;;;5048061;28;20100;-58
2021/11/24 10:59:20;;;;;;;11.43;8.67;;;7.90;99.90;;;;;;5047907;28;20035;-57
2021/11/24 11:01:46;;;;;;;11.60;8.55;;;7.90;99.90;;;;;;5048266;28;20032;-57
2021/11/24 11:04:13;;;;;;;11.35;8.15;;;7.90;99.90;;;;;;5047521;28;20094;-57
2021/11/24 11:06:41;;;;;;;10.38;7.82;;;7.90;99.90;;;;;;5048476;28;20048;-55
2021/11/24 11:09:07;;;;;;;12.05;8.60;;;7.90;99.90;;;;;;5047851;28;20025;-57
2021/11/24 11:11:35;;;;;;;10.93;8.48;;;7.90;99.90;;;;;;5048622;28;20028;-56
2021/11/24 11:14:16;;;;;;;12.25;7.95;;;8.00;99.90;;;;;;5048205;28;20017;-54
2021/11/24 11:16:47;;;;;;;9.40;7.35;;;7.90;99.90;;;;;;5047912;28;20020;-55
2021/11/24 11:19:40;;;;;;;9.50;6.80;;;7.90;99.90;;;;;;5047893;28;20013;-58
2021/11/24 11:22:08;;;;;;;8.00;7.15;;;8.00;99.90;;;;;;5024816;28;20040;-56
2021/11/24 11:24:34;;;;;;;9.38;7.50;;;8.00;99.90;;;;;;5047928;28;20036;-56
2021/11/24 11:26:59;;;;;;;10.90;6.90;;;8.00;99.90;;;;;;5046711;28;20041;-53
2021/11/24 11:29:25;;;;;;;8.85;6.45;;;8.00;99.90;;;;;;5048315;28;20021;-55
2021/11/24 11:31:51;;;;;;;9.10;6.55;;;8.00;99.90;;;;;;5046841;28;20519;-52
2021/11/24 11:34:17;;;;;;;10.05;6.80;;;8.00;99.90;;;;;;5047922;28;20044;-51
2021/11/24 11:36:43;;;;;;;10.57;7.78;;;8.00;99.90;;;;;;5048419;28;20025;-57
2021/11/24 11:39:09;;;;;;;7.47;5.88;;;8.00;99.90;;;;;;5048655;28;20368;-57
2021/11/24 11:41:37;;;;;;;7.88;5.95;;;8.00;99.90;;;;;;5046817;28;20032;-54
2021/11/24 11:44:04;;;;;;;9.07;6.20;;;8.10;99.90;;;;;;5047707;28;20447;-56
2021/11/24 11:46:42;;;;;;;7.88;5.88;;;8.10;99.90;;;;;;5047977;28;20028;-57
2021/11/24 11:49:20;;;;;;;8.02;5.53;;;8.10;99.90;;;;;;5046186;28;20028;-56
2021/11/24 11:51:48;;;;;;;7.57;5.20;;;8.10;99.90;;;;;;5048150;28;20115;-55
2021/11/24 11:54:32;;;;;;;6.88;4.97;;;8.10;99.90;;;;;;5047639;28;20025;-57
2021/11/24 11:57:01;;;;;;;7.28;4.70;;;8.10;99.90;;;;;;5047476;28;20516;-57
2021/11/24 11:59:32;;;;;;;9.10;4.22;;;8.10;99.90;;;;;;5047808;28;20120;-55
2021/11/24 12:02:04;;;;;;;6.78;4.20;;;8.10;99.90;;;;;;5047180;28;20079;-53
2021/11/24 12:04:42;;;;;;;5.78;4.32;;;8.10;99.90;;;;;;5043492;28;20547;-54
2021/11/24 12:07:10;;;;;;;6.00;3.88;;;8.10;99.90;;;;;;5027647;28;20049;-54
2021/11/24 12:09:57;;;;;;;6.65;4.32;;;8.10;99.90;;;;;;5034838;28;20036;-55
2021/11/24 12:12:30;;;;;;;6.40;3.78;;;8.10;99.90;;;;;;5050647;28;20025;-53
2021/11/24 12:15:00;;;;;;;5.43;3.85;;;8.10;99.90;;;;;;5031588;28;20022;-55
2021/11/24 12:17:39;;;;;;;5.72;4.25;;;8.10;99.90;;;;;;5032262;28;20108;-54
2021/11/24 12:20:11;;;;;;;6.43;3.70;;;8.10;99.90;;;;;;5049241;28;20013;-55
2021/11/24 12:22:59;;;;;;;6.13;3.60;;;8.10;99.90;;;;;;5033878;28;20112;-53
2021/11/24 12:25:28;;;;;;;4.25;3.35;;;8.10;99.90;;;;;;5050412;28;20056;-55
2021/11/24 12:27:54;;;;;;;5.57;3.90;;;8.10;99.90;;;;;;5050577;28;20460;-54
2021/11/24 12:33:08;;;;;;;4.05;3.20;;;8.10;99.90;;;;;;5049938;28;20029;-53
2021/11/24 12:35:55;;;;;;;6.80;3.95;;;8.10;99.90;;;;;;5039747;28;20112;-53
2021/11/24 12:38:32;;;;;;;4.80;3.58;;;8.10;99.90;;;;;;5069149;22;20190;-53
2021/11/24 12:41:18;;;;;;;6.07;3.75;;;8.10;99.90;;;;;;5029142;28;20501;-55
2021/11/24 12:43:49;;;;;;;4.53;3.53;;;8.10;99.90;;;;;;5030837;28;20025;-54